Spencer, WI

3:31 AM CST on December 08, 2016 (GMT -0600)
Marshfield Municipal | | Change Station

Elev 1276 ft 44.64 °N, 90.19 °W | Updated 37 minutes ago

Snow
Snow
14 °F
Feels Like -1 °F
N
14
Wind Variable Wind from West
Gusts 24 mph

Today
High -- | Low -- °F
--% Chance of Precip.
Yesterday
High -- | Low -- °F
Precip. -- in
Pressure 30.10 in
Visibility 4.0 miles
Clouds Few 2000 ft
Overcast 2600 ft
Windchill -1 °F
Dew Point 8 °F
Humidity 77%
Rainfall 0.00 in
Snow Depth Not available.
7:26 AM 4:20 PM
First Quarter, 61% visible
METAR KMFI 080854Z AUTO 27012G21KT 4SM -SN FEW020 OVC026 M10/M13 A3003 RMK AO2 SLP192 P0000 60000 T11001133 53008
Pressure 30.10 in
Visibility 4.0 miles
Clouds Few 2000 ft
Overcast 2600 ft
Windchill -1 °F
Dew Point 8 °F
Humidity 77%
Rainfall 0.00 in
Snow Depth Not available.
7:26 AM 4:20 PM
First Quarter, 61% visible
METAR KMFI 080854Z AUTO 27012G21KT 4SM -SN FEW020 OVC026 M10/M13 A3003 RMK AO2 SLP192 P0000 60000 T11001133 53008

10-Day Weather Forecast

Almanac

Astronomy

Dec. 08, 2016 Rise Set
Actual Time
Civil Twilight
Nautical Twilight
Astronomical Twilight
Moon
Length of Visible Light
Length of Day
Tomorrow will be .
, % of the Moon is Illuminated

Today's Extremes

State Highs State Lows

Community

WunderPhotos

Upload Photos

1,956,259 photos uploaded!

WunderBlog® & News

Nearby

Air Quality

  Air Quality AQ Index Pollutant
Not available.

Snow Depth

Station Depth Elevation

Earthquake Activity

City Distance Mag. Time & Date
Minimum magnitude displayed is 2.5.

Coastal Water Temperatures

Place Temperature

Stations

Nearby Weather Stations

Station Location Temp. Windchill Dew Point Humidity Wind Precip. Elev Updated Type
                   

Watches & Warnings

There are currently no watches in effect.